sensor_id;sensor_type;location;lat;lon;timestamp;pressure;altitude;pressure_sealevel;temperature;humidity
14242;BME280;7205;50.864;12.766;2023-02-28T00:02:27;98815.94;;;1.12;72.45
14242;BME280;7205;50.864;12.766;2023-02-28T00:04:54;98814.38;;;1.10;72.40
14242;BME280;7205;50.864;12.766;2023-02-28T00:07:26;98813.72;;;1.06;72.36
14242;BME280;7205;50.864;12.766;2023-02-28T00:09:53;98817.31;;;1.04;72.45
14242;BME280;7205;50.864;12.766;2023-02-28T00:12:20;98815.56;;;1.04;72.62
14242;BME280;7205;50.864;12.766;2023-02-28T00:14:47;98807.84;;;1.03;72.35
14242;BME280;7205;50.864;12.766;2023-02-28T00:17:14;98814.78;;;1.02;72.40
14242;BME280;7205;50.864;12.766;2023-02-28T00:19:43;98817.47;;;1.01;72.77
14242;BME280;7205;50.864;12.766;2023-02-28T00:22:10;98810.72;;;0.98;72.37
14242;BME280;7205;50.864;12.766;2023-02-28T00:24:36;98810.81;;;0.97;72.93
14242;BME280;7205;50.864;12.766;2023-02-28T00:27:03;98815.06;;;0.98;72.90
14242;BME280;7205;50.864;12.766;2023-02-28T00:29:30;98820.34;;;0.96;73.13
14242;BME280;7205;50.864;12.766;2023-02-28T00:31:57;98802.25;;;0.95;73.07
14242;BME280;7205;50.864;12.766;2023-02-28T00:34:24;98807.34;;;0.96;72.88
14242;BME280;7205;50.864;12.766;2023-02-28T00:36:53;98811.81;;;0.94;72.96
14242;BME280;7205;50.864;12.766;2023-02-28T00:39:20;98810.94;;;0.94;73.18
14242;BME280;7205;50.864;12.766;2023-02-28T00:41:47;98806.69;;;0.93;72.78
14242;BME280;7205;50.864;12.766;2023-02-28T00:44:14;98817.09;;;0.93;73.05
14242;BME280;7205;50.864;12.766;2023-02-28T00:46:41;98804.19;;;0.91;72.65
14242;BME280;7205;50.864;12.766;2023-02-28T00:49:08;98809.19;;;0.94;73.26
14242;BME280;7205;50.864;12.766;2023-02-28T00:51:35;98803.81;;;0.97;73.06
14242;BME280;7205;50.864;12.766;2023-02-28T00:54:03;98800.31;;;0.98;73.37
14242;BME280;7205;50.864;12.766;2023-02-28T00:56:30;98794.19;;;0.99;73.70
14242;BME280;7205;50.864;12.766;2023-02-28T00:58:57;98800.97;;;1.02;73.43
14242;BME280;7205;50.864;12.766;2023-02-28T01:01:24;98794.19;;;0.99;73.37
14242;BME280;7205;50.864;12.766;2023-02-28T01:03:51;98793.31;;;0.99;73.17
14242;BME280;7205;50.864;12.766;2023-02-28T01:06:18;98800.22;;;1.00;72.97
14242;BME280;7205;50.864;12.766;2023-02-28T01:08:45;98794.34;;;0.96;73.32
14242;BME280;7205;50.864;12.766;2023-02-28T01:11:15;98796.97;;;0.96;72.71
14242;BME280;7205;50.864;12.766;2023-02-28T01:13:43;98796.19;;;0.94;73.01
14242;BME280;7205;50.864;12.766;2023-02-28T01:16:12;98801.41;;;0.94;73.23
14242;BME280;7205;50.864;12.766;2023-02-28T01:18:39;98797.06;;;0.95;73.00
14242;BME280;7205;50.864;12.766;2023-02-28T01:21:08;98796.19;;;0.94;73.09
14242;BME280;7205;50.864;12.766;2023-02-28T01:23:37;98796.19;;;0.94;73.55
14242;BME280;7205;50.864;12.766;2023-02-28T01:26:05;98786.84;;;0.92;73.22
14242;BME280;7205;50.864;12.766;2023-02-28T01:28:33;98787.75;;;0.91;72.99
14242;BME280;7205;50.864;12.766;2023-02-28T01:31:00;98796.56;;;0.88;72.51
14242;BME280;7205;50.864;12.766;2023-02-28T01:33:27;98794.16;;;0.85;72.54
14242;BME280;7205;50.864;12.766;2023-02-28T01:35:58;98787.44;;;0.81;72.38
14242;BME280;7205;50.864;12.766;2023-02-28T01:38:25;98788.69;;;0.74;72.17
14242;BME280;7205;50.864;12.766;2023-02-28T01:40:53;98780.41;;;0.68;71.85
14242;BME280;7205;50.864;12.766;2023-02-28T01:43:23;98778.97;;;0.62;71.61
14242;BME280;7205;50.864;12.766;2023-02-28T01:45:52;98784.44;;;0.58;71.64
14242;BME280;7205;50.864;12.766;2023-02-28T01:48:20;98780.50;;;0.51;71.20
14242;BME280;7205;50.864;12.766;2023-02-28T01:50:48;98785.97;;;0.46;71.17
14242;BME280;7205;50.864;12.766;2023-02-28T01:53:17;98778.56;;;0.39;71.33
14242;BME280;7205;50.864;12.766;2023-02-28T01:55:47;98782.38;;;0.33;71.54
14242;BME280;7205;50.864;12.766;2023-02-28T01:58:15;98780.00;;;0.29;71.13
14242;BME280;7205;50.864;12.766;2023-02-28T02:00:42;98781.09;;;0.25;71.01
14242;BME280;7205;50.864;12.766;2023-02-28T02:03:13;98776.19;;;0.20;71.24
14242;BME280;7205;50.864;12.766;2023-02-28T02:05:41;98768.69;;;0.14;71.09
14242;BME280;7205;50.864;12.766;2023-02-28T02:08:17;98775.00;;;0.10;71.17
14242;BME280;7205;50.864;12.766;2023-02-28T02:10:50;98775.13;;;0.07;71.08
14242;BME280;7205;50.864;12.766;2023-02-28T02:13:31;98772.03;;;0.00;71.44
14242;BME280;7205;50.864;12.766;2023-02-28T02:16:04;98783.53;;;-0.04;71.23
14242;BME280;7205;50.864;12.766;2023-02-28T02:18:40;98778.88;;;-0.14;71.31
14242;BME280;7205;50.864;12.766;2023-02-28T02:27:20;98767.97;;;-0.36;72.14
14242;BME280;7205;50.864;12.766;2023-02-28T02:30:12;98768.28;;;-0.42;72.19
14242;BME280;7205;50.864;12.766;2023-02-28T02:33:04;98773.59;;;-0.45;72.16
14242;BME280;7205;50.864;12.766;2023-02-28T02:35:39;98763.56;;;-0.51;72.47
14242;BME280;7205;50.864;12.766;2023-02-28T02:38:13;98758.53;;;-0.54;72.70
14242;BME280;7205;50.864;12.766;2023-02-28T02:40:46;98758.72;;;-0.57;72.79
14242;BME280;7205;50.864;12.766;2023-02-28T02:43:19;98765.81;;;-0.61;72.80
14242;BME280;7205;50.864;12.766;2023-02-28T02:45:50;98768.56;;;-0.64;72.56
14242;BME280;7205;50.864;12.766;2023-02-28T02:48:25;98766.94;;;-0.66;72.56
14242;BME280;7205;50.864;12.766;2023-02-28T02:50:56;98770.47;;;-0.67;73.13
14242;BME280;7205;50.864;12.766;2023-02-28T02:53:27;98777.47;;;-0.69;73.15
14242;BME280;7205;50.864;12.766;2023-02-28T02:55:59;98780.06;;;-0.69;73.30
14242;BME280;7205;50.864;12.766;2023-02-28T02:58:31;98777.56;;;-0.71;73.65
14242;BME280;7205;50.864;12.766;2023-02-28T03:01:01;98780.06;;;-0.69;73.49
14242;BME280;7205;50.864;12.766;2023-02-28T03:03:31;98778.31;;;-0.69;73.97
14242;BME280;7205;50.864;12.766;2023-02-28T03:06:01;98773.06;;;-0.67;74.10
14242;BME280;7205;50.864;12.766;2023-02-28T03:08:33;98776.38;;;-0.65;74.24
14242;BME280;7205;50.864;12.766;2023-02-28T03:11:02;98782.34;;;-0.63;74.34
14242;BME280;7205;50.864;12.766;2023-02-28T03:16:57;98782.94;;;-0.58;74.74
14242;BME280;7205;50.864;12.766;2023-02-28T03:19:35;98780.28;;;-0.57;74.99
14242;BME280;7205;50.864;12.766;2023-02-28T03:25:01;98777.47;;;-0.52;74.77
14242;BME280;7205;50.864;12.766;2023-02-28T03:27:38;98767.91;;;-0.52;75.19
14242;BME280;7205;50.864;12.766;2023-02-28T03:30:10;98772.09;;;-0.49;74.78
14242;BME280;7205;50.864;12.766;2023-02-28T03:32:42;98774.72;;;-0.49;75.11
14242;BME280;7205;50.864;12.766;2023-02-28T03:35:16;98773.84;;;-0.50;74.74
14242;BME280;7205;50.864;12.766;2023-02-28T03:37:50;98775.56;;;-0.49;75.10
14242;BME280;7205;50.864;12.766;2023-02-28T03:40:21;98773.69;;;-0.47;75.12
14242;BME280;7205;50.864;12.766;2023-02-28T03:42:54;98768.41;;;-0.45;75.26
14242;BME280;7205;50.864;12.766;2023-02-28T03:45:25;98772.63;;;-0.43;75.61
14242;BME280;7205;50.864;12.766;2023-02-28T03:47:54;98776.00;;;-0.41;75.47
14242;BME280;7205;50.864;12.766;2023-02-28T03:50:24;98774.06;;;-0.37;76.04
14242;BME280;7205;50.864;12.766;2023-02-28T03:52:57;98779.94;;;-0.34;76.22
14242;BME280;7205;50.864;12.766;2023-02-28T03:55:34;98775.34;;;-0.29;76.27
14242;BME280;7205;50.864;12.766;2023-02-28T03:58:10;98769.91;;;-0.24;76.31
14242;BME280;7205;50.864;12.766;2023-02-28T04:00:43;98774.09;;;-0.22;76.45
14242;BME280;7205;50.864;12.766;2023-02-28T04:03:12;98781.66;;;-0.17;76.49
14242;BME280;7205;50.864;12.766;2023-02-28T04:05:47;98780.72;;;-0.16;76.76
14242;BME280;7205;50.864;12.766;2023-02-28T04:08:17;98777.13;;;-0.14;76.67
14242;BME280;7205;50.864;12.766;2023-02-28T04:10:48;98775.44;;;-0.15;76.90
14242;BME280;7205;50.864;12.766;2023-02-28T04:13:17;98779.56;;;-0.11;76.77
14242;BME280;7205;50.864;12.766;2023-02-28T04:15:44;98782.97;;;-0.10;76.97
14242;BME280;7205;50.864;12.766;2023-02-28T04:18:11;98787.00;;;-0.05;76.57
14242;BME280;7205;50.864;12.766;2023-02-28T04:20:38;98780.94;;;-0.04;77.06
14242;BME280;7205;50.864;12.766;2023-02-28T04:23:04;98775.72;;;-0.04;77.29
14242;BME280;7205;50.864;12.766;2023-02-28T04:25:33;98784.94;;;0.02;77.41
14242;BME280;7205;50.864;12.766;2023-02-28T04:28:00;98778.75;;;0.05;77.26
14242;BME280;7205;50.864;12.766;2023-02-28T04:30:26;98794.91;;;0.10;77.26
14242;BME280;7205;50.864;12.766;2023-02-28T04:32:55;98789.47;;;0.14;77.74
14242;BME280;7205;50.864;12.766;2023-02-28T04:35:21;98781.44;;;0.19;77.71
14242;BME280;7205;50.864;12.766;2023-02-28T04:37:48;98789.06;;;0.22;77.96
14242;BME280;7205;50.864;12.766;2023-02-28T04:40:16;98796.53;;;0.28;77.82
14242;BME280;7205;50.864;12.766;2023-02-28T04:42:44;98790.34;;;0.30;77.76
14242;BME280;7205;50.864;12.766;2023-02-28T04:45:11;98790.91;;;0.35;77.73
14242;BME280;7205;50.864;12.766;2023-02-28T04:47:38;98791.66;;;0.37;77.95
14242;BME280;7205;50.864;12.766;2023-02-28T04:50:05;98795.78;;;0.41;78.12
14242;BME280;7205;50.864;12.766;2023-02-28T04:52:33;98794.75;;;0.44;78.25
14242;BME280;7205;50.864;12.766;2023-02-28T04:54:59;98798.94;;;0.46;78.34
14242;BME280;7205;50.864;12.766;2023-02-28T04:57:27;98795.34;;;0.49;78.26
14242;BME280;7205;50.864;12.766;2023-02-28T04:59:55;98793.41;;;0.52;78.17
14242;BME280;7205;50.864;12.766;2023-02-28T05:02:22;98803.66;;;0.55;78.11
14242;BME280;7205;50.864;12.766;2023-02-28T05:04:49;98795.84;;;0.55;78.02
14242;BME280;7205;50.864;12.766;2023-02-28T05:07:15;98800.88;;;0.58;78.12
14242;BME280;7205;50.864;12.766;2023-02-28T05:09:42;98804.25;;;0.60;78.44
14242;BME280;7205;50.864;12.766;2023-02-28T05:12:09;98802.44;;;0.61;77.97
14242;BME280;7205;50.864;12.766;2023-02-28T05:14:36;98801.69;;;0.59;78.51
14242;BME280;7205;50.864;12.766;2023-02-28T05:17:05;98822.06;;;0.66;78.46
14242;BME280;7205;50.864;12.766;2023-02-28T05:19:32;98810.00;;;0.65;77.92
14242;BME280;7205;50.864;12.766;2023-02-28T05:21:58;98796.25;;;0.63;78.10
14242;BME280;7205;50.864;12.766;2023-02-28T05:24:25;98803.13;;;0.64;78.30
14242;BME280;7205;50.864;12.766;2023-02-28T05:26:53;98802.13;;;0.67;78.07
14242;BME280;7205;50.864;12.766;2023-02-28T05:29:20;98807.34;;;0.67;78.10
14242;BME280;7205;50.864;12.766;2023-02-28T05:31:47;98801.38;;;0.65;78.01
14242;BME280;7205;50.864;12.766;2023-02-28T05:34:16;98809.94;;;0.67;77.85
14242;BME280;7205;50.864;12.766;2023-02-28T05:36:43;98806.41;;;0.68;78.18
14242;BME280;7205;50.864;12.766;2023-02-28T05:39:10;98806.56;;;0.65;78.29
14242;BME280;7205;50.864;12.766;2023-02-28T05:41:40;98812.63;;;0.65;78.26
14242;BME280;7205;50.864;12.766;2023-02-28T05:44:07;98819.56;;;0.65;78.40
14242;BME280;7205;50.864;12.766;2023-02-28T05:46:34;98815.28;;;0.64;78.22
14242;BME280;7205;50.864;12.766;2023-02-28T05:49:01;98816.28;;;0.61;78.29
14242;BME280;7205;50.864;12.766;2023-02-28T05:51:29;98819.06;;;0.58;78.28
14242;BME280;7205;50.864;12.766;2023-02-28T05:53:59;98824.25;;;0.58;78.54
14242;BME280;7205;50.864;12.766;2023-02-28T05:56:27;98819.06;;;0.58;78.63
14242;BME280;7205;50.864;12.766;2023-02-28T05:58:54;98825.25;;;0.56;78.18
14242;BME280;7205;50.864;12.766;2023-02-28T06:01:24;98818.56;;;0.52;78.34
14242;BME280;7205;50.864;12.766;2023-02-28T06:04:00;98824.75;;;0.49;77.70
14242;BME280;7205;50.864;12.766;2023-02-28T06:06:29;98823.31;;;0.44;77.62
14242;BME280;7205;50.864;12.766;2023-02-28T06:09:00;98832.97;;;0.42;77.98
14242;BME280;7205;50.864;12.766;2023-02-28T06:11:27;98834.91;;;0.38;77.54
14242;BME280;7205;50.864;12.766;2023-02-28T06:13:55;98836.81;;;0.35;77.25
14242;BME280;7205;50.864;12.766;2023-02-28T06:16:22;98839.69;;;0.30;77.48
14242;BME280;7205;50.864;12.766;2023-02-28T06:18:49;98837.97;;;0.29;77.62
14242;BME280;7205;50.864;12.766;2023-02-28T06:21:20;98845.00;;;0.27;77.63
14242;BME280;7205;50.864;12.766;2023-02-28T06:23:49;98845.19;;;0.24;77.26
14242;BME280;7205;50.864;12.766;2023-02-28T06:26:16;98851.38;;;0.22;77.76
14242;BME280;7205;50.864;12.766;2023-02-28T06:28:49;98858.34;;;0.21;77.80
14242;BME280;7205;50.864;12.766;2023-02-28T06:31:17;98855.91;;;0.18;77.40
14242;BME280;7205;50.864;12.766;2023-02-28T06:33:48;98858.59;;;0.17;77.95
14242;BME280;7205;50.864;12.766;2023-02-28T06:36:16;98863.78;;;0.17;77.87
14242;BME280;7205;50.864;12.766;2023-02-28T06:38:43;98872.38;;;0.17;78.29
14242;BME280;7205;50.864;12.766;2023-02-28T06:41:11;98870.72;;;0.16;78.52
14242;BME280;7205;50.864;12.766;2023-02-28T06:43:40;98876.69;;;0.18;78.31
14242;BME280;7205;50.864;12.766;2023-02-28T06:46:09;98875.75;;;0.19;78.79
14242;BME280;7205;50.864;12.766;2023-02-28T06:48:37;98880.09;;;0.19;78.41
14242;BME280;7205;50.864;12.766;2023-02-28T06:51:05;98886.03;;;0.21;78.74
14242;BME280;7205;50.864;12.766;2023-02-28T06:53:32;98889.41;;;0.23;78.57
14242;BME280;7205;50.864;12.766;2023-02-28T06:58:59;98893.53;;;0.27;78.78
14242;BME280;7205;50.864;12.766;2023-02-28T07:01:28;98885.81;;;0.25;78.96
14242;BME280;7205;50.864;12.766;2023-02-28T07:03:57;98894.34;;;0.27;79.25
14242;BME280;7205;50.864;12.766;2023-02-28T07:06:28;98882.97;;;0.30;79.27
14242;BME280;7205;50.864;12.766;2023-02-28T07:08:58;98895.72;;;0.34;79.59
14242;BME280;7205;50.864;12.766;2023-02-28T07:11:26;98903.19;;;0.40;79.28
14242;BME280;7205;50.864;12.766;2023-02-28T07:13:54;98896.38;;;0.38;79.31
14242;BME280;7205;50.864;12.766;2023-02-28T07:16:23;98909.13;;;0.42;79.35
14242;BME280;7205;50.864;12.766;2023-02-28T07:18:52;98904.59;;;0.46;79.86
14242;BME280;7205;50.864;12.766;2023-02-28T07:21:19;98896.66;;;0.49;79.90
14242;BME280;7205;50.864;12.766;2023-02-28T07:23:46;98904.44;;;0.49;79.69
14242;BME280;7205;50.864;12.766;2023-02-28T07:26:14;98901.69;;;0.52;79.71
14242;BME280;7205;50.864;12.766;2023-02-28T07:28:48;98906.91;;;0.52;79.42
14242;BME280;7205;50.864;12.766;2023-02-28T07:31:16;98912.00;;;0.53;79.75
14242;BME280;7205;50.864;12.766;2023-02-28T07:33:45;98912.78;;;0.55;79.67
14242;BME280;7205;50.864;12.766;2023-02-28T07:36:14;98902.38;;;0.55;79.48
14242;BME280;7205;50.864;12.766;2023-02-28T07:38:41;98905.72;;;0.57;79.41
14242;BME280;7205;50.864;12.766;2023-02-28T07:41:09;98906.47;;;0.59;78.76
14242;BME280;7205;50.864;12.766;2023-02-28T07:43:36;98901.19;;;0.61;79.07
14242;BME280;7205;50.864;12.766;2023-02-28T07:46:04;98902.88;;;0.62;78.68
14242;BME280;7205;50.864;12.766;2023-02-28T07:48:43;98900.97;;;0.65;78.76
14242;BME280;7205;50.864;12.766;2023-02-28T07:51:37;98904.16;;;0.70;78.43
14242;BME280;7205;50.864;12.766;2023-02-28T07:54:13;98905.63;;;0.74;78.88
14242;BME280;7205;50.864;12.766;2023-02-28T07:57:22;98906.50;;;0.75;78.67
14242;BME280;7205;50.864;12.766;2023-02-28T07:59:49;98903.72;;;0.78;78.34
14242;BME280;7205;50.864;12.766;2023-02-28T08:02:18;98898.44;;;0.79;77.91
14242;BME280;7205;50.864;12.766;2023-02-28T08:04:45;98907.94;;;0.80;77.85
14242;BME280;7205;50.864;12.766;2023-02-28T08:07:15;98893.06;;;0.82;77.36
14242;BME280;7205;50.864;12.766;2023-02-28T08:09:43;98903.31;;;0.85;77.56
14242;BME280;7205;50.864;12.766;2023-02-28T08:12:11;98904.88;;;0.88;77.57
14242;BME280;7205;50.864;12.766;2023-02-28T08:14:38;98890.97;;;0.89;77.10
14242;BME280;7205;50.864;12.766;2023-02-28T08:17:10;98897.78;;;0.91;76.52
14242;BME280;7205;50.864;12.766;2023-02-28T08:19:37;98903.91;;;0.90;76.21
14242;BME280;7205;50.864;12.766;2023-02-28T08:22:04;98892.47;;;0.93;75.86
14242;BME280;7205;50.864;12.766;2023-02-28T08:24:33;98909.69;;;0.95;75.49
14242;BME280;7205;50.864;12.766;2023-02-28T08:27:00;98891.53;;;0.94;75.43
14242;BME280;7205;50.864;12.766;2023-02-28T08:29:27;98896.50;;;0.98;74.43
14242;BME280;7205;50.864;12.766;2023-02-28T08:31:55;98894.72;;;0.99;74.50
14242;BME280;7205;50.864;12.766;2023-02-28T08:34:26;98901.63;;;1.00;73.88
14242;BME280;7205;50.864;12.766;2023-02-28T08:36:55;98897.09;;;1.03;73.30
14242;BME280;7205;50.864;12.766;2023-02-28T08:39:35;98900.44;;;1.05;73.25
14242;BME280;7205;50.864;12.766;2023-02-28T08:42:04;98908.75;;;1.12;72.83
14242;BME280;7205;50.864;12.766;2023-02-28T08:44:31;98903.47;;;1.13;72.76
14242;BME280;7205;50.864;12.766;2023-02-28T08:46:58;98915.19;;;1.20;71.89
14242;BME280;7205;50.864;12.766;2023-02-28T08:49:25;98904.84;;;1.19;71.41
14242;BME280;7205;50.864;12.766;2023-02-28T08:51:52;98905.09;;;1.30;71.35
14242;BME280;7205;50.864;12.766;2023-02-28T08:54:23;98904.66;;;1.38;71.26
14242;BME280;7205;50.864;12.766;2023-02-28T08:56:52;98907.69;;;1.46;70.02
14242;BME280;7205;50.864;12.766;2023-02-28T08:59:19;98914.84;;;1.56;69.13
14242;BME280;7205;50.864;12.766;2023-02-28T09:01:50;98916.66;;;1.70;68.71
14242;BME280;7205;50.864;12.766;2023-02-28T09:04:17;98914.44;;;1.78;67.73
14242;BME280;7205;50.864;12.766;2023-02-28T09:06:44;98907.69;;;1.89;67.42
14242;BME280;7205;50.864;12.766;2023-02-28T09:09:11;98908.66;;;2.02;67.00
14242;BME280;7205;50.864;12.766;2023-02-28T09:11:38;98907.91;;;2.14;66.67
14242;BME280;7205;50.864;12.766;2023-02-28T09:14:07;98907.81;;;2.30;66.37
14242;BME280;7205;50.864;12.766;2023-02-28T09:16:43;98908.75;;;2.43;65.64
14242;BME280;7205;50.864;12.766;2023-02-28T09:23:42;98907.16;;;2.83;63.59
14242;BME280;7205;50.864;12.766;2023-02-28T09:28:34;98900.69;;;2.88;62.86
14242;BME280;7205;50.864;12.766;2023-02-28T09:38:23;98899.56;;;2.37;60.25
14242;BME280;7205;50.864;12.766;2023-02-28T09:41:08;98899.81;;;2.33;60.60
14242;BME280;7205;50.864;12.766;2023-02-28T09:44:24;98908.38;;;2.35;60.50
14242;BME280;7205;50.864;12.766;2023-02-28T09:58:49;98886.69;;;2.63;57.85
14242;BME280;7205;50.864;12.766;2023-02-28T10:12:34;98896.28;;;2.62;56.25
14242;BME280;7205;50.864;12.766;2023-02-28T10:15:54;98895.91;;;2.54;55.64
14242;BME280;7205;50.864;12.766;2023-02-28T10:18:27;98904.00;;;2.49;55.40
14242;BME280;7205;50.864;12.766;2023-02-28T10:21:01;98894.91;;;2.42;55.05
14242;BME280;7205;50.864;12.766;2023-02-28T10:23:34;98887.81;;;2.44;54.82
14242;BME280;7205;50.864;12.766;2023-02-28T10:26:09;98899.19;;;2.43;55.76
14242;BME280;7205;50.864;12.766;2023-02-28T10:28:44;98885.13;;;2.46;54.94
14242;BME280;7205;50.864;12.766;2023-02-28T10:31:34;98892.75;;;2.49;54.69
14242;BME280;7205;50.864;12.766;2023-02-28T10:34:26;98880.84;;;2.45;54.46
14242;BME280;7205;50.864;12.766;2023-02-28T10:36:59;98885.19;;;2.44;54.46
14242;BME280;7205;50.864;12.766;2023-02-28T10:39:57;98881.69;;;2.45;54.45
14242;BME280;7205;50.864;12.766;2023-02-28T10:42:26;98893.50;;;2.51;55.15
14242;BME280;7205;50.864;12.766;2023-02-28T10:45:16;98877.03;;;2.50;53.78
14242;BME280;7205;50.864;12.766;2023-02-28T10:47:55;98878.50;;;2.54;54.56
14242;BME280;7205;50.864;12.766;2023-02-28T10:50:28;98883.16;;;2.64;54.81
14242;BME280;7205;50.864;12.766;2023-02-28T10:53:20;98882.59;;;2.73;55.73
14242;BME280;7205;50.864;12.766;2023-02-28T10:56:25;98881.53;;;2.89;56.32
14242;BME280;7205;50.864;12.766;2023-02-28T10:58:55;98881.88;;;2.97;55.54
14242;BME280;7205;50.864;12.766;2023-02-28T11:01:23;98880.09;;;2.98;54.86
14242;BME280;7205;50.864;12.766;2023-02-28T11:03:52;98870.78;;;2.94;53.81
14242;BME280;7205;50.864;12.766;2023-02-28T11:06:21;98875.56;;;2.87;53.69
14242;BME280;7205;50.864;12.766;2023-02-28T11:08:52;98875.75;;;2.84;54.05
14242;BME280;7205;50.864;12.766;2023-02-28T11:11:20;98869.91;;;2.81;53.68
14242;BME280;7205;50.864;12.766;2023-02-28T11:13:51;98869.34;;;2.76;53.90
14242;BME280;7205;50.864;12.766;2023-02-28T11:16:20;98865.16;;;2.73;53.74
14242;BME280;7205;50.864;12.766;2023-02-28T11:18:49;98858.38;;;2.71;53.81
14242;BME280;7205;50.864;12.766;2023-02-28T11:21:21;98863.88;;;2.66;53.62
14242;BME280;7205;50.864;12.766;2023-02-28T11:23:51;98861.75;;;2.58;53.06
14242;BME280;7205;50.864;12.766;2023-02-28T11:26:36;98866.41;;;2.53;53.43
14242;BME280;7205;50.864;12.766;2023-02-28T11:29:12;98856.38;;;2.47;53.29
14242;BME280;7205;50.864;12.766;2023-02-28T11:31:41;98853.00;;;2.45;53.29
14242;BME280;7205;50.864;12.766;2023-02-28T11:34:26;98857.28;;;2.46;53.95
14242;BME280;7205;50.864;12.766;2023-02-28T11:36:55;98852.81;;;2.48;53.58
14242;BME280;7205;50.864;12.766;2023-02-28T11:39:24;98854.31;;;2.52;53.77
14242;BME280;7205;50.864;12.766;2023-02-28T11:42:07;98848.16;;;2.53;53.50
14242;BME280;7205;50.864;12.766;2023-02-28T11:44:47;98846.19;;;2.57;53.62
14242;BME280;7205;50.864;12.766;2023-02-28T11:47:30;98847.78;;;2.60;54.09
14242;BME280;7205;50.864;12.766;2023-02-28T11:50:15;98847.69;;;2.61;53.98
14242;BME280;7205;50.864;12.766;2023-02-28T11:53:33;98847.78;;;2.60;53.53
14242;BME280;7205;50.864;12.766;2023-02-28T11:56:33;98854.75;;;2.59;52.83
14242;BME280;7205;50.864;12.766;2023-02-28T11:59:30;98851.41;;;2.57;53.84
14242;BME280;7205;50.864;12.766;2023-02-28T12:02:49;98853.16;;;2.56;53.30
14242;BME280;7205;50.864;12.766;2023-02-28T12:05:49;98857.47;;;2.58;53.50
14242;BME280;7205;50.864;12.766;2023-02-28T12:09:00;98849.81;;;2.54;53.61
14242;BME280;7205;50.864;12.766;2023-02-28T12:11:43;98844.44;;;2.58;53.42
14242;BME280;7205;50.864;12.766;2023-02-28T12:14:40;98829.81;;;2.55;53.86
14242;BME280;7205;50.864;12.766;2023-02-28T12:17:30;98842.28;;;2.64;54.28
14242;BME280;7205;50.864;12.766;2023-02-28T12:20:16;98840.13;;;2.71;54.96
14242;BME280;7205;50.864;12.766;2023-02-28T12:23:03;98837.97;;;2.77;55.72
14242;BME280;7205;50.864;12.766;2023-02-28T12:25:50;98842.69;;;2.85;55.88
14242;BME280;7205;50.864;12.766;2023-02-28T12:28:26;98829.47;;;2.88;55.93
14242;BME280;7205;50.864;12.766;2023-02-28T12:31:01;98821.31;;;2.92;55.57
14242;BME280;7205;50.864;12.766;2023-02-28T12:33:38;98830.44;;;2.99;56.46
14242;BME280;7205;50.864;12.766;2023-02-28T12:36:11;98830.34;;;3.01;55.75
14242;BME280;7205;50.864;12.766;2023-02-28T12:42:07;98830.78;;;3.07;55.66
14242;BME280;7205;50.864;12.766;2023-02-28T12:45:45;98827.22;;;3.08;55.39
14242;BME280;7205;50.864;12.766;2023-02-28T12:48:25;98806.75;;;3.02;54.68
14242;BME280;7205;50.864;12.766;2023-02-28T12:51:28;98816.25;;;3.03;54.21
14242;BME280;7205;50.864;12.766;2023-02-28T12:54:04;98818.94;;;3.02;54.84
14242;BME280;7205;50.864;12.766;2023-02-28T12:56:45;98809.38;;;3.02;54.86
14242;BME280;7205;50.864;12.766;2023-02-28T12:59:30;98818.28;;;3.12;55.63
14242;BME280;7205;50.864;12.766;2023-02-28T13:09:01;98813.28;;;3.22;54.79
14242;BME280;7205;50.864;12.766;2023-02-28T13:11:33;98814.22;;;3.21;54.42
14242;BME280;7205;50.864;12.766;2023-02-28T13:14:05;98813.09;;;3.25;54.83
14242;BME280;7205;50.864;12.766;2023-02-28T13:17:01;98812.03;;;3.27;55.12
14242;BME280;7205;50.864;12.766;2023-02-28T13:19:36;98814.56;;;3.29;54.64
14242;BME280;7205;50.864;12.766;2023-02-28T13:22:05;98809.63;;;3.24;53.98
14242;BME280;7205;50.864;12.766;2023-02-28T13:24:45;98819.97;;;3.26;54.35
14242;BME280;7205;50.864;12.766;2023-02-28T13:27:35;98821.75;;;3.25;54.70
14242;BME280;7205;50.864;12.766;2023-02-28T13:33:30;98818.38;;;3.23;54.77
14242;BME280;7205;50.864;12.766;2023-02-28T13:36:07;98818.75;;;3.31;55.35
14242;BME280;7205;50.864;12.766;2023-02-28T13:38:44;98817.78;;;3.32;54.96
14242;BME280;7205;50.864;12.766;2023-02-28T13:41:45;98821.03;;;3.36;55.15
14242;BME280;7205;50.864;12.766;2023-02-28T13:44:20;98815.94;;;3.34;54.86
14242;BME280;7205;50.864;12.766;2023-02-28T13:47:23;98806.34;;;3.35;54.50
14242;BME280;7205;50.864;12.766;2023-02-28T13:50:14;98811.84;;;3.30;54.90
14242;BME280;7205;50.864;12.766;2023-02-28T13:52:47;98807.25;;;3.21;54.36
14242;BME280;7205;50.864;12.766;2023-02-28T13:55:25;98812.56;;;3.20;54.44
14242;BME280;7205;50.864;12.766;2023-02-28T13:58:09;98810.56;;;3.23;54.15
14242;BME280;7205;50.864;12.766;2023-02-28T14:00:54;98797.50;;;3.23;54.95
14242;BME280;7205;50.864;12.766;2023-02-28T14:03:43;98798.50;;;3.35;55.09
14242;BME280;7205;50.864;12.766;2023-02-28T14:06:25;98798.72;;;3.44;55.73
14242;BME280;7205;50.864;12.766;2023-02-28T14:08:59;98800.81;;;3.52;55.44
14242;BME280;7205;50.864;12.766;2023-02-28T14:11:33;98804.03;;;3.55;55.38
14242;BME280;7205;50.864;12.766;2023-02-28T14:17:59;98791.94;;;3.54;55.84
14242;BME280;7205;50.864;12.766;2023-02-28T14:20:47;98802.16;;;3.57;55.83
14242;BME280;7205;50.864;12.766;2023-02-28T14:23:33;98790.25;;;3.53;55.42
14242;BME280;7205;50.864;12.766;2023-02-28T14:29:33;98785.44;;;3.47;54.94
14242;BME280;7205;50.864;12.766;2023-02-28T14:32:18;98783.06;;;3.44;54.69
14242;BME280;7205;50.864;12.766;2023-02-28T14:35:20;98772.81;;;3.41;55.16
14242;BME280;7205;50.864;12.766;2023-02-28T14:38:17;98770.59;;;3.35;54.56
14242;BME280;7205;50.864;12.766;2023-02-28T14:40:55;98770.72;;;3.34;54.65
14242;BME280;7205;50.864;12.766;2023-02-28T14:43:26;98773.44;;;3.32;54.60
14242;BME280;7205;50.864;12.766;2023-02-28T14:46:02;98778.00;;;3.29;54.54
14242;BME280;7205;50.864;12.766;2023-02-28T14:48:44;98771.25;;;3.26;55.00
14242;BME280;7205;50.864;12.766;2023-02-28T14:51:18;98780.63;;;3.29;55.28
14242;BME280;7205;50.864;12.766;2023-02-28T14:54:06;98776.88;;;3.33;55.92
14242;BME280;7205;50.864;12.766;2023-02-28T15:00:36;98772.81;;;3.41;55.89
14242;BME280;7205;50.864;12.766;2023-02-28T15:03:31;98769.38;;;3.41;56.01